Airfield :
LOGIN :

Register | Disclaimer

   EN    FR    IT 

 










Legend :    VFR   Marginal VFR   IFR   Intensive IFR   Very Intensive IFR
Visi :
Ceiling :
>= 8 km
>= 3000ft
5 to 8 km
1000 to 3000 ft
1500m to 5 km
500 to 1000 ft
800 to 1500m
200 to 500 ft
< 800m
< 200 ft
Symbols :   Thunderstorms  Fog  Heavy snow  Heavy precipitations  Wind > 20 kt
SIGMETs :     Misc.  Thunderstorms  Icing  Turbulence  Mountain Waves  Volcanic Ashes






- Airport Elevation : 62 ft
- IATA code : TAN


GMTT - Tanger Ibn Batouta

CURRENT METAR :
  • 271930Z 08003KT CAVOK 16/16 Q1022 NOSIG

EXPIRED METARs :
  • 271900Z 10004KT CAVOK 17/16 Q1022 NOSIG
  • 271830Z 07006KT CAVOK 17/16 Q1022 NOSIG
  • 271800Z VRB02KT CAVOK 17/16 Q1022 NOSIG
  • 271730Z 04004KT 360V070 CAVOK 17/16 Q1022 NOSIG
  • 271700Z 04004KT CAVOK 18/16 Q1021 NOSIG
  • 271630Z 04007KT CAVOK 19/16 Q1021 NOSIG

TAF TAF GMTT
Valid from the 27 at 18:00 until the 29 at 00:00 UTC


271700Z 2718/2824 04004KT CAVOK
BECMG 2719/2721 VRB02KT 7000 SCT013
BECMG 2806/2808 32008KT CAVOK



MET'MAP, your aeronautical weather chart ! - Copyright ORBIFLY December 2007 - Disclaimer

ORBIFLY MET'MAP TEAM :

Programming & Development : Alexandra Zaïnal
Original concept : Baudouin d'Aumeries
Technical & hardware support : Manuel Goepfert
Assistance : Marc-Olivier Méhu




SOURCES & CREDITS :

   NOAA